Map

Track Data

SID SEASON NUMBER BASIN SUBBASIN NAME ISO_TIME NATURE LAT LON WMO_WIND WMO_PRES WMO_AGENCY TRACK_TYPE DIST2LAND LANDFALL IFLAG USA_AGENCY USA_ATCF_ID USA_LAT USA_LON USA_RECORD USA_STATUS USA_WIND USA_PRES USA_SSHS USA_R34_NE USA_R34_SE USA_R34_SW USA_R34_NW USA_R50_NE USA_R50_SE USA_R50_SW USA_R50_NW USA_R64_NE USA_R64_SE USA_R64_SW USA_R64_NW USA_POCI USA_ROCI USA_RMW USA_EYE TOKYO_LAT TOKYO_LON TOKYO_GRADE TOKYO_WIND TOKYO_PRES TOKYO_R50_DIR TOKYO_R50_LONG TOKYO_R50_SHORT TOKYO_R30_DIR TOKYO_R30_LONG TOKYO_R30_SHORT TOKYO_LAND CMA_LAT CMA_LON CMA_CAT CMA_WIND CMA_PRES HKO_LAT HKO_LON HKO_CAT HKO_WIND HKO_PRES NEWDELHI_LAT NEWDELHI_LON NEWDELHI_GRADE NEWDELHI_WIND NEWDELHI_PRES NEWDELHI_CI NEWDELHI_DP NEWDELHI_POCI REUNION_LAT REUNION_LON REUNION_TYPE REUNION_WIND REUNION_PRES REUNION_TNUM REUNION_CI REUNION_RMW REUNION_R34_NE REUNION_R34_SE REUNION_R34_SW REUNION_R34_NW REUNION_R50_NE REUNION_R50_SE REUNION_R50_SW REUNION_R50_NW REUNION_R64_NE REUNION_R64_SE REUNION_R64_SW REUNION_R64_NW BOM_LAT BOM_LON BOM_TYPE BOM_WIND BOM_PRES BOM_TNUM BOM_CI BOM_RMW BOM_R34_NE BOM_R34_SE BOM_R34_SW BOM_R34_NW BOM_R50_NE BOM_R50_SE BOM_R50_SW BOM_R50_NW BOM_R64_NE BOM_R64_SE BOM_R64_SW BOM_R64_NW BOM_ROCI BOM_POCI BOM_EYE BOM_POS_METHOD BOM_PRES_METHOD NADI_LAT NADI_LON NADI_CAT NADI_WIND NADI_PRES WELLINGTON_LAT WELLINGTON_LON WELLINGTON_WIND WELLINGTON_PRES DS824_LAT DS824_LON DS824_STAGE DS824_WIND DS824_PRES TD9636_LAT TD9636_LON TD9636_STAGE TD9636_WIND TD9636_PRES TD9635_LAT TD9635_LON TD9635_WIND TD9635_PRES TD9635_ROCI NEUMANN_LAT NEUMANN_LON NEUMANN_CLASS NEUMANN_WIND NEUMANN_PRES MLC_LAT MLC_LON MLC_CLASS MLC_WIND MLC_PRES USA_GUST BOM_GUST BOM_GUST_PER REUNION_GUST REUNION_GUST_PER USA_SEAHGT USA_SEARAD_NE USA_SEARAD_SE USA_SEARAD_SW USA_SEARAD_NW STORM_SPEED STORM_DIR
1928071S09060 1928 19 SI MM NOT_NAMED 1928-03-10 18:00:00 NR -8.50000 60.2000 main 1233 1233 __________O___ -1 -8.50000 60.2000 7 1 268
1928071S09060 1928 19 SI MM NOT_NAMED 1928-03-10 21:00:00 NR -8.50127 60.1512 main 1233 1223 __________P___ -1 -8.50127 60.1512 7 1 257
1928071S09060 1928 19 SI MM NOT_NAMED 1928-03-11 00:00:00 NR -8.53206 60.0620 main 1223 1198 __________P___ -1 -8.53206 60.0620 7 3 245
1928071S09060 1928 19 SI MM NOT_NAMED 1928-03-11 03:00:00 NR -8.62184 59.8918 main 1198 1159 __________P___ -1 -8.62184 59.8918 7 5 240
1928071S09060 1928 19 SI MM NOT_NAMED 1928-03-11 06:00:00 NR -8.80000 59.6000 main 1159 1105 __________O___ -1 -8.80000 59.6000 7 9 237
1928071S09060 1928 19 SI MM NOT_NAMED 1928-03-11 09:00:00 NR -9.08510 59.1613 main 1105 1031 __________P___ -1 -9.08510 59.1613 7 12 236
1928071S09060 1928 19 SI MM NOT_NAMED 1928-03-11 12:00:00 NR -9.45311 58.6129 main 1027 953 __________P___ -1 -9.45311 58.6129 7 14 235
1928071S09060 1928 19 SI MM NOT_NAMED 1928-03-11 15:00:00 NR -9.86948 58.0080 main 949 871 __________P___ -1 -9.86948 58.0080 7 15 235
1928071S09060 1928 19 SI MM NOT_NAMED 1928-03-11 18:00:00 NR -10.3000 57.4000 main 871 804 __________O___ -1 -10.3000 57.4000 7 14 235
1928071S09060 1928 19 SI MM NOT_NAMED 1928-03-11 21:00:00 NR -10.6929 56.8233 main 794 728 __________P___ -1 -10.6929 56.8233 7 14 235
1928071S09060 1928 19 SI MM NOT_NAMED 1928-03-12 00:00:00 NR -11.0928 56.2603 main 728 663 __________P___ -1 -11.0928 56.2603 7 13 233
1928071S09060 1928 19 SI MM NOT_NAMED 1928-03-12 03:00:00 NR -11.4962 55.7421 main 652 599 __________P___ -1 -11.4962 55.7421 7 12 229
1928071S09060 1928 19 SI MM NOT_NAMED 1928-03-12 06:00:00 NR -11.9000 55.3000 main 599 556 __________O___ -1 -11.9000 55.3000 7 11 225
1928071S09060 1928 19 SI MM NOT_NAMED 1928-03-12 09:00:00 NR -12.2751 54.9540 main 556 516 __________P___ -1 -12.2751 54.9540 7 10 218
1928071S09060 1928 19 SI MM NOT_NAMED 1928-03-12 12:00:00 NR -12.6544 54.6867 main 513 484 __________P___ -1 -12.6544 54.6867 7 9 211
1928071S09060 1928 19 SI MM NOT_NAMED 1928-03-12 15:00:00 NR -13.0565 54.4760 main 482 451 __________P___ -1 -13.0565 54.4760 7 9 204
1928071S09060 1928 19 SI MM NOT_NAMED 1928-03-12 18:00:00 NR -13.5000 54.3000 main 451 410 __________O___ -1 -13.5000 54.3000 7 10 202
1928071S09060 1928 19 SI MM NOT_NAMED 1928-03-12 21:00:00 NR -14.0028 54.0851 main 410 373 __________P___ -1 -14.0028 54.0851 7 11 200
1928071S09060 1928 19 SI MM NOT_NAMED 1928-03-13 00:00:00 NR -14.5475 53.9032 main 373 354 __________P___ -1 -14.5475 53.9032 7 12 195
1928071S09060 1928 19 SI MM NOT_NAMED 1928-03-13 03:00:00 NR -15.1185 53.7696 main 354 343 __________P___ -1 -15.1185 53.7696 7 12 190
1928071S09060 1928 19 SI MM NOT_NAMED 1928-03-13 06:00:00 NR -15.7000 53.7000 main 344 344 __________O___ -1 -15.7000 53.7000 7 12 183
1928071S09060 1928 19 SI MM NOT_NAMED 1928-03-13 09:00:00 NR -16.3043 53.7055 main 356 356 __________P___ -1 -16.3043 53.7055 7 12 177
1928071S09060 1928 19 SI MM NOT_NAMED 1928-03-13 12:00:00 NR -16.9099 53.7740 main 390 390 __________P___ -1 -16.9099 53.7740 7 12 172
1928071S09060 1928 19 SI MM NOT_NAMED 1928-03-13 15:00:00 NR -17.4856 53.8806 main 418 362 __________P___ -1 -17.4856 53.8806 7 11 169
1928071S09060 1928 19 SI MM NOT_NAMED 1928-03-13 18:00:00 NR -18.0000 54.0000 main 362 316 __________O___ -1 -18.0000 54.0000 7 9 169
1928071S09060 1928 19 SI MM NOT_NAMED 1928-03-13 21:00:00 NR -18.3821 54.0732 main 316 281 __________P___ -1 -18.3821 54.0732 7 7 168
1928071S09060 1928 19 SI MM NOT_NAMED 1928-03-14 00:00:00 NR -18.7073 54.1562 main 281 246 __________P___ -1 -18.7073 54.1562 7 7 165
1928071S09060 1928 19 SI MM NOT_NAMED 1928-03-14 03:00:00 NR -19.0289 54.2610 main 246 202 __________P___ -1 -19.0289 54.2610 7 7 161
1928071S09060 1928 19 SI MM NOT_NAMED 1928-03-14 06:00:00 NR -19.4000 54.4000 main 202 143 __________O___ -1 -19.4000 54.4000 7 10 161
1928071S09060 1928 19 SI MM NOT_NAMED 1928-03-14 09:00:00 NR -19.9291 54.5883 main 143 76 __________P___ -1 -19.9291 54.5883 7 12 161
1928071S09060 1928 19 SI MM NOT_NAMED 1928-03-14 12:00:00 NR -20.5076 54.8114 main 76 20 __________P___ -1 -20.5076 54.8114 7 12 159
1928071S09060 1928 19 SI MM NOT_NAMED 1928-03-14 15:00:00 NR -21.0823 55.0540 main 10 10 __________P___ -1 -21.0823 55.0540 7 12 157
1928071S09060 1928 19 SI MM NOT_NAMED 1928-03-14 18:00:00 NR -21.6000 55.3000 main 33 33 __________O___ -1 -21.6000 55.3000 7 10 154
1928071S09060 1928 19 SI MM NOT_NAMED 1928-03-14 21:00:00 NR -21.9774 55.5259 main 67 67 __________P___ -1 -21.9774 55.5259 7 8 149
1928071S09060 1928 19 SI MM NOT_NAMED 1928-03-15 00:00:00 NR -22.2948 55.7512 main 102 102 __________P___ -1 -22.2948 55.7512 7 7 146
1928071S09060 1928 19 SI MM NOT_NAMED 1928-03-15 03:00:00 NR -22.5899 55.9759 main 140 140 __________P___ -1 -22.5899 55.9759 7 7 146
1928071S09060 1928 19 SI MM NOT_NAMED 1928-03-15 06:00:00 NR -22.9000 56.2000 main 178 178 __________O___ -1 -22.9000 56.2000 7 8 150
1928071S09060 1928 19 SI MM NOT_NAMED 1928-03-15 09:00:00 NR -23.2903 56.4091 main 227 227 __________P___ -1 -23.2903 56.4091 7 9 154
1928071S09060 1928 19 SI MM NOT_NAMED 1928-03-15 12:00:00 NR -23.6996 56.6206 main 276 276 __________P___ -1 -23.6996 56.6206 7 9 154
1928071S09060 1928 19 SI MM NOT_NAMED 1928-03-15 15:00:00 NR -24.1090 56.8467 main 325 325 __________P___ -1 -24.1090 56.8467 7 9 151
1928071S09060 1928 19 SI MM NOT_NAMED 1928-03-15 18:00:00 NR -24.5000 57.1000 main 378 378 __________O___ -1 -24.5000 57.1000 7 9 146
1928071S09060 1928 19 SI MM NOT_NAMED 1928-03-15 21:00:00 NR -24.8506 57.3925 main 432 432 __________P___ -1 -24.8506 57.3925 7 9 141
1928071S09060 1928 19 SI MM NOT_NAMED 1928-03-16 00:00:00 NR -25.1799 57.7130 main 475 475 __________P___ -1 -25.1799 57.7130 7 9 137
1928071S09060 1928 19 SI MM NOT_NAMED 1928-03-16 03:00:00 NR -25.4943 58.0520 main 524 524 __________P___ -1 -25.4943 58.0520 7 9 135
1928071S09060 1928 19 SI MM NOT_NAMED 1928-03-16 06:00:00 NR -25.8000 58.4000 main 568 568 __________O___ -1 -25.8000 58.4000 7 9 135
1928071S09060 1928 19 SI MM NOT_NAMED 1928-03-16 09:00:00 NR -26.1193 58.7471 main 612 612 __________P___ -1 -26.1193 58.7471 7 9 135
1928071S09060 1928 19 SI MM NOT_NAMED 1928-03-16 12:00:00 NR -26.4299 59.1002 main 661 661 __________P___ -1 -26.4299 59.1002 7 9 134
1928071S09060 1928 19 SI MM NOT_NAMED 1928-03-16 15:00:00 NR -26.7255 59.4533 main 710 710 __________P___ -1 -26.7255 59.4533 7 8 132
1928071S09060 1928 19 SI MM NOT_NAMED 1928-03-16 18:00:00 NR -27.0000 59.8000 main 755 755 __________O___ -1 -27.0000 59.8000 7 8 131
1928071S09060 1928 19 SI MM NOT_NAMED 1928-03-16 21:00:00 NR -27.2380 60.1251 main 787 787 __________P___ -1 -27.2380 60.1251 7 7 129
1928071S09060 1928 19 SI MM NOT_NAMED 1928-03-17 00:00:00 NR -27.4569 60.4440 main 828 828 __________P___ -1 -27.4569 60.4440 7 7 127
1928071S09060 1928 19 SI MM NOT_NAMED 1928-03-17 03:00:00 NR -27.6723 60.7658 main 863 863 __________P___ -1 -27.6723 60.7658 7 7 127
1928071S09060 1928 19 SI MM NOT_NAMED 1928-03-17 06:00:00 NR -27.9000 61.1000 main 895 895 __________O___ -1 -27.9000 61.1000 7 8 129
1928071S09060 1928 19 SI MM NOT_NAMED 1928-03-17 09:00:00 NR -28.1686 61.4606 main 942 942 __________P___ -1 -28.1686 61.4606 7 9 130
1928071S09060 1928 19 SI MM NOT_NAMED 1928-03-17 12:00:00 NR -28.4498 61.8349 main 975 975 __________P___ -1 -28.4498 61.8349 7 9 130
1928071S09060 1928 19 SI MM NOT_NAMED 1928-03-17 15:00:00 NR -28.7311 62.2169 main 1022 1022 __________P___ -1 -28.7311 62.2169 7 9 129
1928071S09060 1928 19 SI MM NOT_NAMED 1928-03-17 18:00:00 NR -29.0000 62.6000 main 1070 1070 __________O___ -1 -29.0000 62.6000 7 8 128
1928071S09060 1928 19 SI MM NOT_NAMED 1928-03-17 21:00:00 NR -29.2472 62.9790 main 1108 1108 __________P___ -1 -29.2472 62.9790 7 8 126
1928071S09060 1928 19 SI MM NOT_NAMED 1928-03-18 00:00:00 NR -29.4757 63.3542 main 1157 1157 __________P___ -1 -29.4757 63.3542 7 8 124
1928071S09060 1928 19 SI MM NOT_NAMED 1928-03-18 03:00:00 NR -29.6913 63.7273 main 1191 1191 __________P___ -1 -29.6913 63.7273 7 8 123
1928071S09060 1928 19 SI MM NOT_NAMED 1928-03-18 06:00:00 NR -29.9000 64.1000 main 1230 __________O___ -1 -29.9000 64.1000 7 8 123

About IBTrACS Database

This database is a web-friendly format of International Best Track Archive for Climate Stewardship (IBTrACS), a global best track data archive curated by NOAA dating back to 1842.

Updated: 2021-11-26